createdAt,value
2019-02-26T00:01:18.488Z,99.90
2019-02-26T00:03:46.365Z,99.90
2019-02-26T00:06:16.777Z,99.90
2019-02-26T00:08:49.230Z,99.90
2019-02-26T00:11:17.786Z,99.90
2019-02-26T00:13:48.638Z,99.90
2019-02-26T00:16:20.390Z,99.90
2019-02-26T00:18:49.209Z,99.90
2019-02-26T00:21:20.417Z,99.90
2019-02-26T00:23:51.423Z,99.90
2019-02-26T00:26:22.227Z,99.90
2019-02-26T00:28:51.533Z,99.90
2019-02-26T00:31:21.434Z,99.90
2019-02-26T00:33:51.758Z,99.90
2019-02-26T00:36:21.012Z,99.90
2019-02-26T00:38:50.292Z,99.90
2019-02-26T00:41:20.752Z,99.90
2019-02-26T00:43:53.144Z,99.90
2019-02-26T00:46:24.124Z,99.90
2019-02-26T00:48:52.847Z,99.90
2019-02-26T00:51:23.146Z,99.90
2019-02-26T00:53:55.084Z,99.90
2019-02-26T00:56:25.240Z,99.90
2019-02-26T00:58:56.131Z,99.90
2019-02-26T01:01:25.493Z,99.90
2019-02-26T01:03:54.995Z,99.90
2019-02-26T01:06:25.155Z,99.90
2019-02-26T01:08:55.486Z,99.90
2019-02-26T01:11:25.867Z,99.90
2019-02-26T01:13:57.342Z,99.90
2019-02-26T01:16:26.810Z,99.90
2019-02-26T01:18:56.119Z,99.90
2019-02-26T01:21:26.794Z,99.90
2019-02-26T01:23:57.130Z,99.90
2019-02-26T01:26:27.936Z,99.90
2019-02-26T01:28:58.542Z,99.90
2019-02-26T01:31:29.278Z,99.90
2019-02-26T01:33:59.797Z,99.90
2019-02-26T01:36:29.269Z,99.90
2019-02-26T01:38:58.567Z,99.90
2019-02-26T01:41:28.054Z,99.90
2019-02-26T01:43:57.387Z,99.90
2019-02-26T01:46:26.730Z,99.90
2019-02-26T01:48:57.556Z,99.90
2019-02-26T01:51:28.613Z,99.90
2019-02-26T01:53:58.239Z,99.90
2019-02-26T01:56:46.605Z,99.90
2019-02-26T01:59:18.964Z,99.90
2019-02-26T02:01:48.988Z,99.90
2019-02-26T02:04:19.626Z,99.90
2019-02-26T02:06:49.109Z,99.90
2019-02-26T02:09:20.417Z,99.90
2019-02-26T02:11:49.609Z,99.90
2019-02-26T02:14:18.909Z,99.90
2019-02-26T02:16:48.205Z,99.90
2019-02-26T02:19:20.049Z,99.90
2019-02-26T02:21:49.397Z,99.90
2019-02-26T02:24:21.843Z,99.90
2019-02-26T02:26:52.964Z,99.90
2019-02-26T02:29:24.038Z,99.90
2019-02-26T02:31:54.865Z,99.90
2019-02-26T02:34:27.027Z,99.90
2019-02-26T02:36:55.379Z,99.90
2019-02-26T02:39:26.544Z,99.90
2019-02-26T02:41:55.743Z,99.90
2019-02-26T02:44:25.646Z,99.90
2019-02-26T02:46:55.272Z,99.90
2019-02-26T02:49:24.550Z,99.90
2019-02-26T02:51:54.019Z,99.90
2019-02-26T02:54:24.072Z,99.90
2019-02-26T02:56:56.298Z,99.90
2019-02-26T02:59:25.891Z,99.90
2019-02-26T03:01:57.011Z,99.90
2019-02-26T03:04:29.087Z,99.90
2019-02-26T03:06:58.752Z,99.90
2019-02-26T03:09:28.362Z,99.90
2019-02-26T03:11:57.876Z,99.90
2019-02-26T03:14:27.257Z,99.90
2019-02-26T03:16:56.590Z,99.90
2019-02-26T03:19:26.041Z,99.90
2019-02-26T03:21:55.364Z,99.90
2019-02-26T03:24:26.290Z,99.90
2019-02-26T03:26:55.908Z,99.90
2019-02-26T03:29:25.238Z,99.90
2019-02-26T03:31:55.579Z,99.90
2019-02-26T03:34:25.525Z,99.90
2019-02-26T03:36:57.329Z,99.90
2019-02-26T03:39:26.714Z,99.90
2019-02-26T03:41:56.501Z,99.90
2019-02-26T03:44:29.567Z,99.90
2019-02-26T03:47:02.275Z,99.90
2019-02-26T03:49:31.723Z,99.90
2019-02-26T03:52:01.027Z,99.90
2019-02-26T03:54:30.430Z,99.90
2019-02-26T03:56:59.635Z,99.90
2019-02-26T03:59:28.972Z,99.90
2019-02-26T04:01:58.396Z,99.90
2019-02-26T04:04:30.502Z,99.90
2019-02-26T04:07:01.195Z,99.90
2019-02-26T04:09:29.929Z,99.90
2019-02-26T04:11:59.406Z,99.90
2019-02-26T04:14:30.545Z,99.90
2019-02-26T04:17:01.651Z,99.90
2019-02-26T04:19:30.745Z,99.90
2019-02-26T04:22:49.771Z,99.90
2019-02-26T04:25:57.620Z,99.90
2019-02-26T04:28:54.181Z,99.90
2019-02-26T04:32:09.542Z,99.90
2019-02-26T04:35:12.990Z,99.90
2019-02-26T04:38:06.317Z,99.90
2019-02-26T04:41:11.962Z,99.90
2019-02-26T04:44:22.914Z,99.90
2019-02-26T04:47:13.378Z,99.90
2019-02-26T04:49:43.203Z,99.90
2019-02-26T04:52:14.271Z,99.90
2019-02-26T04:54:44.169Z,99.90
2019-02-26T04:57:13.645Z,99.90
2019-02-26T04:59:43.833Z,99.90
2019-02-26T05:02:13.516Z,99.90
2019-02-26T05:04:43.108Z,99.90
2019-02-26T05:07:14.050Z,99.90
2019-02-26T05:09:43.594Z,99.90
2019-02-26T05:12:12.911Z,99.90
2019-02-26T05:14:42.169Z,99.90
2019-02-26T05:17:11.465Z,99.90
2019-02-26T05:19:43.486Z,99.90
2019-02-26T05:22:11.751Z,99.90
2019-02-26T05:24:42.404Z,99.90
2019-02-26T05:27:18.710Z,99.90
2019-02-26T05:29:48.931Z,99.90
2019-02-26T05:32:17.662Z,99.90
2019-02-26T05:34:50.173Z,99.90
2019-02-26T05:37:18.448Z,99.90
2019-02-26T05:39:49.021Z,99.90
2019-02-26T05:42:18.903Z,99.90
2019-02-26T05:44:48.101Z,99.90
2019-02-26T05:47:20.671Z,99.90
2019-02-26T05:49:48.425Z,99.90
2019-02-26T05:52:17.669Z,99.90
2019-02-26T05:54:47.174Z,99.90
2019-02-26T05:57:27.144Z,99.90
2019-02-26T05:59:47.478Z,99.90
2019-02-26T06:02:19.163Z,99.90
2019-02-26T06:04:48.066Z,99.90
2019-02-26T06:07:21.681Z,99.90
2019-02-26T06:09:50.942Z,99.90
2019-02-26T06:12:20.640Z,99.90
2019-02-26T06:14:51.480Z,99.90
2019-02-26T06:17:21.219Z,99.90
2019-02-26T06:19:50.897Z,99.90
2019-02-26T06:22:21.378Z,99.90
2019-02-26T06:24:54.914Z,99.90
2019-02-26T06:27:24.681Z,99.90
2019-02-26T06:29:57.207Z,99.90
2019-02-26T06:32:27.405Z,99.90
2019-02-26T06:34:55.713Z,99.90
2019-02-26T06:37:25.102Z,99.90
2019-02-26T06:39:55.645Z,99.90
2019-02-26T06:42:25.985Z,99.90
2019-02-26T06:44:55.394Z,99.90
2019-02-26T06:47:26.490Z,99.90
2019-02-26T06:49:55.733Z,99.90
2019-02-26T06:52:25.162Z,99.90
2019-02-26T06:54:57.470Z,99.90
2019-02-26T06:57:25.406Z,99.90
2019-02-26T06:59:56.330Z,99.90
2019-02-26T07:02:28.955Z,99.90
2019-02-26T07:04:56.945Z,99.90
2019-02-26T07:07:26.451Z,99.90
2019-02-26T07:09:58.118Z,99.90
2019-02-26T07:12:27.003Z,99.90
2019-02-26T07:14:58.215Z,99.90
2019-02-26T07:17:31.913Z,99.90
2019-02-26T07:20:00.167Z,99.90
2019-02-26T07:22:29.222Z,99.90
2019-02-26T07:24:58.641Z,99.90
2019-02-26T07:27:28.881Z,99.90
2019-02-26T07:29:59.065Z,99.90
2019-02-26T07:32:28.327Z,99.90
2019-02-26T07:34:58.201Z,99.90
2019-02-26T07:37:28.621Z,99.90
2019-02-26T07:39:58.793Z,99.90
2019-02-26T07:42:28.080Z,99.90
2019-02-26T07:44:58.631Z,99.90
2019-02-26T07:47:29.396Z,99.90
2019-02-26T07:50:01.065Z,99.90
2019-02-26T07:52:31.258Z,99.90
2019-02-26T07:55:00.945Z,99.90
2019-02-26T07:57:30.194Z,99.90
2019-02-26T07:59:59.578Z,99.90
2019-02-26T08:02:30.620Z,99.90
2019-02-26T08:04:59.913Z,99.90
2019-02-26T08:07:30.824Z,99.90
2019-02-26T08:10:00.271Z,99.90
2019-02-26T08:12:30.966Z,99.90
2019-02-26T08:15:02.399Z,99.90
2019-02-26T08:17:31.727Z,99.90
2019-02-26T08:20:01.730Z,99.90
2019-02-26T08:22:34.116Z,99.90
2019-02-26T08:25:03.018Z,99.90
2019-02-26T08:27:33.866Z,99.90
2019-02-26T08:30:03.701Z,99.90
2019-02-26T08:32:32.971Z,99.90
2019-02-26T08:35:02.237Z,99.90
2019-02-26T08:37:31.539Z,99.90
2019-02-26T08:40:00.786Z,99.90
2019-02-26T08:42:30.081Z,99.90
2019-02-26T08:44:59.562Z,99.90
2019-02-26T08:47:28.735Z,99.90
2019-02-26T08:49:58.867Z,99.90
2019-02-26T08:52:29.491Z,99.90
2019-02-26T08:54:59.253Z,99.90
2019-02-26T08:57:28.742Z,99.90
2019-02-26T08:59:58.414Z,99.90
2019-02-26T09:02:27.834Z,99.90
2019-02-26T09:04:59.119Z,99.90
2019-02-26T09:07:28.441Z,99.90
2019-02-26T09:09:58.126Z,99.90
2019-02-26T09:12:28.022Z,99.90
2019-02-26T09:14:57.783Z,99.90
2019-02-26T09:17:29.888Z,99.90
2019-02-26T09:20:08.380Z,99.90
2019-02-26T09:22:29.429Z,99.90
2019-02-26T09:24:59.853Z,99.90
2019-02-26T09:27:31.958Z,99.90
2019-02-26T09:30:00.827Z,99.90
2019-02-26T09:32:30.267Z,99.90
2019-02-26T09:35:01.469Z,99.90
2019-02-26T09:37:30.770Z,99.90
2019-02-26T09:40:02.814Z,99.90
2019-02-26T09:42:32.473Z,99.90
2019-02-26T09:45:01.972Z,99.90
2019-02-26T09:47:33.393Z,99.90
2019-02-26T09:50:02.378Z,99.90
2019-02-26T09:52:32.719Z,99.90
2019-02-26T09:55:02.412Z,99.90
2019-02-26T09:57:31.863Z,98.20
2019-02-26T10:00:03.241Z,96.30
2019-02-26T10:02:32.158Z,94.40
2019-02-26T10:05:01.418Z,90.10
2019-02-26T10:07:33.106Z,87.70
2019-02-26T10:10:05.445Z,90.70
2019-02-26T10:12:34.540Z,91.30
2019-02-26T10:15:05.317Z,91.70
2019-02-26T10:17:37.103Z,90.50
2019-02-26T10:20:09.479Z,84.80
2019-02-26T10:22:40.433Z,80.40
2019-02-26T10:25:11.102Z,84.50
2019-02-26T10:27:41.368Z,90.50
2019-02-26T10:30:16.085Z,90.00
2019-02-26T10:32:46.863Z,86.70
2019-02-26T10:35:19.479Z,84.10
2019-02-26T10:37:53.312Z,81.40
2019-02-26T10:40:22.870Z,82.60
2019-02-26T10:42:52.562Z,90.70
2019-02-26T10:45:25.770Z,87.80
2019-02-26T10:47:56.688Z,77.10
2019-02-26T10:50:31.050Z,70.40
2019-02-26T10:53:01.743Z,68.10
2019-02-26T10:55:33.870Z,72.00
2019-02-26T10:58:04.127Z,68.50
2019-02-26T11:00:34.120Z,64.20
2019-02-26T11:03:01.627Z,74.30
2019-02-26T11:05:30.905Z,66.50
2019-02-26T11:08:05.210Z,66.60
2019-02-26T11:10:32.019Z,65.90
2019-02-26T11:13:01.439Z,63.50
2019-02-26T11:15:33.399Z,74.00
2019-02-26T11:18:01.766Z,71.10
2019-02-26T11:20:34.084Z,64.70
2019-02-26T11:23:04.122Z,56.90
2019-02-26T11:25:37.017Z,60.30
2019-02-26T11:28:07.458Z,57.60
2019-02-26T11:30:37.772Z,58.40
2019-02-26T11:33:08.614Z,55.10
2019-02-26T11:35:39.731Z,56.80
2019-02-26T11:38:09.781Z,55.80
2019-02-26T11:40:40.119Z,53.60
2019-02-26T11:43:13.829Z,50.40
2019-02-26T11:45:41.994Z,49.60
2019-02-26T11:48:11.511Z,50.00
2019-02-26T11:50:44.253Z,50.20
2019-02-26T11:53:11.970Z,49.60
2019-02-26T11:55:41.535Z,49.90
2019-02-26T11:58:15.391Z,52.30
2019-02-26T12:00:49.717Z,57.60
2019-02-26T12:03:20.617Z,54.80
2019-02-26T12:05:49.301Z,51.00
2019-02-26T12:08:20.045Z,50.00
2019-02-26T12:10:52.201Z,49.60
2019-02-26T12:13:22.362Z,45.70
2019-02-26T12:15:52.387Z,45.80
2019-02-26T12:18:22.481Z,45.60
2019-02-26T12:20:51.965Z,44.70
2019-02-26T12:23:26.228Z,42.70
2019-02-26T12:25:58.217Z,43.40
2019-02-26T12:28:28.294Z,44.70
2019-02-26T12:30:58.597Z,49.10
2019-02-26T12:33:32.304Z,53.90
2019-02-26T12:36:02.035Z,59.10
2019-02-26T12:38:31.036Z,58.60
2019-02-26T12:41:00.917Z,56.70
2019-02-26T12:43:32.984Z,66.20
2019-02-26T12:46:04.553Z,68.70
2019-02-26T12:48:35.168Z,79.70
2019-02-26T12:51:04.759Z,80.60
2019-02-26T12:53:49.004Z,71.50
2019-02-26T12:56:15.758Z,80.00
2019-02-26T12:58:47.985Z,84.30
2019-02-26T13:01:16.657Z,82.50
2019-02-26T13:03:50.076Z,83.80
2019-02-26T13:06:18.802Z,87.20
2019-02-26T13:08:50.543Z,85.70
2019-02-26T13:11:21.030Z,86.60
2019-02-26T13:13:52.589Z,88.70
2019-02-26T13:16:21.082Z,90.10
2019-02-26T13:21:21.614Z,91.60
2019-02-26T13:23:51.270Z,91.80
2019-02-26T13:26:22.554Z,92.20
2019-02-26T13:31:22.923Z,88.40
2019-02-26T13:33:52.755Z,85.90
2019-02-26T13:36:22.944Z,85.70
2019-02-26T13:38:52.196Z,82.70
2019-02-26T13:41:29.591Z,81.40
2019-02-26T13:43:52.512Z,83.50
2019-02-26T13:46:22.090Z,90.10
2019-02-26T13:48:51.361Z,81.10
2019-02-26T13:51:20.853Z,85.60
2019-02-26T13:53:50.108Z,86.40
2019-02-26T13:56:19.508Z,80.80
2019-02-26T13:58:48.839Z,85.70
2019-02-26T14:01:18.197Z,92.40
2019-02-26T14:03:47.480Z,87.40
2019-02-26T14:06:17.071Z,85.40
2019-02-26T14:08:46.602Z,95.60
2019-02-26T14:11:15.877Z,90.20
2019-02-26T14:13:45.454Z,89.70
2019-02-26T14:16:14.751Z,88.30
2019-02-26T14:18:44.065Z,90.80
2019-02-26T14:21:13.917Z,99.60
2019-02-26T14:23:43.265Z,92.10
2019-02-26T14:26:12.593Z,90.60
2019-02-26T14:28:41.919Z,91.80
2019-02-26T14:31:11.216Z,93.10
2019-02-26T14:33:40.494Z,94.20
2019-02-26T14:36:09.750Z,99.00
2019-02-26T14:38:39.052Z,99.90
2019-02-26T14:41:08.235Z,99.90
2019-02-26T14:43:37.699Z,99.60
2019-02-26T14:46:07.018Z,98.60
2019-02-26T14:48:36.412Z,99.30
2019-02-26T14:51:06.250Z,99.90
2019-02-26T14:53:35.615Z,99.90
2019-02-26T14:56:05.364Z,99.90
2019-02-26T14:58:34.731Z,99.90
2019-02-26T15:01:04.352Z,99.90
2019-02-26T15:03:33.653Z,99.90
2019-02-26T15:06:03.045Z,99.90
2019-02-26T15:08:32.586Z,99.90
2019-02-26T15:11:02.217Z,99.90
2019-02-26T15:13:31.571Z,99.90
2019-02-26T15:16:01.882Z,99.90
2019-02-26T15:18:31.794Z,99.90
2019-02-26T15:21:01.139Z,99.90
2019-02-26T15:23:30.507Z,99.90
2019-02-26T15:25:59.860Z,99.90
2019-02-26T15:28:29.408Z,99.90
2019-02-26T15:31:00.845Z,99.90
2019-02-26T15:33:30.214Z,99.90
2019-02-26T15:35:59.662Z,99.90
2019-02-26T15:38:29.167Z,99.90
2019-02-26T15:40:58.611Z,99.90
2019-02-26T15:43:27.900Z,99.90
2019-02-26T15:45:57.799Z,99.90
2019-02-26T15:48:28.275Z,99.90
2019-02-26T15:50:57.755Z,99.90
2019-02-26T15:53:27.572Z,99.90
2019-02-26T15:55:59.466Z,99.90
2019-02-26T15:58:28.082Z,99.90
2019-02-26T16:01:00.198Z,99.90
2019-02-26T16:03:30.132Z,99.90
2019-02-26T16:05:59.747Z,99.90
2019-02-26T16:08:34.555Z,99.90
2019-02-26T16:11:00.311Z,99.90
2019-02-26T16:13:29.605Z,99.90
2019-02-26T16:15:59.406Z,99.90
2019-02-26T16:18:29.610Z,99.90
2019-02-26T16:20:59.659Z,99.90
2019-02-26T16:23:28.949Z,99.90
2019-02-26T16:25:58.302Z,99.90
2019-02-26T16:28:27.975Z,99.90
2019-02-26T16:30:57.619Z,99.90
2019-02-26T16:33:26.940Z,99.90
2019-02-26T16:35:57.842Z,99.90
2019-02-26T16:38:27.256Z,99.90
2019-02-26T16:40:56.517Z,99.90
2019-02-26T16:43:25.897Z,99.90
2019-02-26T16:45:55.544Z,99.90
2019-02-26T16:48:24.878Z,99.90
2019-02-26T16:50:54.159Z,99.90
2019-02-26T16:53:23.464Z,99.90
2019-02-26T16:55:52.655Z,99.90
2019-02-26T16:58:22.023Z,99.90
2019-02-26T17:00:51.341Z,99.90
2019-02-26T17:03:20.879Z,99.90
2019-02-26T17:05:50.227Z,99.90
2019-02-26T17:08:19.755Z,99.90
2019-02-26T17:10:49.482Z,99.90
2019-02-26T17:13:18.784Z,99.90
2019-02-26T17:15:48.394Z,99.90
2019-02-26T17:18:18.065Z,99.90
2019-02-26T17:20:47.441Z,99.90
2019-02-26T17:23:35.803Z,99.90
2019-02-26T17:26:07.558Z,99.90
2019-02-26T17:28:36.927Z,99.90
2019-02-26T17:31:06.285Z,99.90
2019-02-26T17:33:35.604Z,99.90
2019-02-26T17:36:04.913Z,99.90
2019-02-26T17:38:34.319Z,99.90
2019-02-26T17:41:03.615Z,99.90
2019-02-26T17:43:32.950Z,99.90
2019-02-26T17:46:03.015Z,99.90
2019-02-26T17:48:42.973Z,99.90
2019-02-26T17:51:03.744Z,99.90
2019-02-26T17:53:33.290Z,99.90
2019-02-26T17:56:02.652Z,99.90
2019-02-26T17:58:31.988Z,99.90
2019-02-26T18:01:01.287Z,99.90
2019-02-26T18:03:30.503Z,99.90
2019-02-26T18:05:59.934Z,99.90
2019-02-26T18:08:30.413Z,99.90
2019-02-26T18:10:59.757Z,99.90
2019-02-26T18:13:29.423Z,99.90
2019-02-26T18:16:00.238Z,99.90
2019-02-26T18:18:29.842Z,99.90
2019-02-26T18:20:59.172Z,99.90
2019-02-26T18:23:28.711Z,99.90
2019-02-26T18:25:58.183Z,99.90
2019-02-26T18:28:27.514Z,99.90
2019-02-26T18:30:56.853Z,99.90
2019-02-26T18:33:26.193Z,99.90
2019-02-26T18:35:55.493Z,99.90
2019-02-26T18:38:25.081Z,99.90
2019-02-26T18:40:54.447Z,99.90
2019-02-26T18:43:23.743Z,99.90
2019-02-26T18:45:53.046Z,99.90
2019-02-26T18:48:22.439Z,99.90
2019-02-26T18:50:51.780Z,99.90
2019-02-26T18:53:21.125Z,99.90
2019-02-26T18:55:50.532Z,99.90
2019-02-26T18:58:19.901Z,99.90
2019-02-26T19:00:49.388Z,99.90
2019-02-26T19:03:19.001Z,99.90
2019-02-26T19:05:48.267Z,99.90
2019-02-26T19:08:19.023Z,99.90
2019-02-26T19:10:50.867Z,99.90
2019-02-26T19:13:20.745Z,99.90
2019-02-26T19:15:50.124Z,99.90
2019-02-26T19:18:19.782Z,99.90
2019-02-26T19:20:49.640Z,99.90
2019-02-26T19:23:19.130Z,99.90
2019-02-26T19:25:48.463Z,99.90
2019-02-26T19:28:17.849Z,99.90
2019-02-26T19:30:47.262Z,99.90
2019-02-26T19:33:18.837Z,99.90
2019-02-26T19:35:47.574Z,99.90
2019-02-26T19:38:17.380Z,99.90
2019-02-26T19:40:46.654Z,99.90
2019-02-26T19:43:16.042Z,99.90
2019-02-26T19:45:45.701Z,99.90
2019-02-26T19:48:14.958Z,99.90
2019-02-26T19:50:47.858Z,99.90
2019-02-26T19:53:15.736Z,99.90
2019-02-26T19:55:48.867Z,99.90
2019-02-26T19:58:16.717Z,99.90
2019-02-26T20:00:46.008Z,99.90
2019-02-26T20:03:15.364Z,99.90
2019-02-26T20:05:46.510Z,99.90
2019-02-26T20:08:15.866Z,99.90
2019-02-26T20:10:48.027Z,99.90
2019-02-26T20:13:16.522Z,99.90
2019-02-26T20:15:46.237Z,99.90
2019-02-26T20:18:20.672Z,99.90
2019-02-26T20:20:46.652Z,99.90
2019-02-26T20:23:16.161Z,99.90
2019-02-26T20:25:46.869Z,99.90
2019-02-26T20:28:16.245Z,99.90
2019-02-26T20:30:45.803Z,99.90
2019-02-26T20:33:15.254Z,99.90
2019-02-26T20:35:45.377Z,99.90
2019-02-26T20:38:15.409Z,99.90
2019-02-26T20:40:48.696Z,99.90
2019-02-26T20:43:16.126Z,99.90
2019-02-26T20:45:45.506Z,99.90
2019-02-26T20:48:14.835Z,99.90
2019-02-26T20:50:44.582Z,99.90
2019-02-26T20:53:13.915Z,99.90
2019-02-26T20:55:52.025Z,99.90
2019-02-26T20:58:33.455Z,99.90
2019-02-26T21:01:02.835Z,99.90
2019-02-26T21:03:32.172Z,99.90
2019-02-26T21:06:01.543Z,99.90
2019-02-26T21:08:31.578Z,99.90
2019-02-26T21:11:01.069Z,99.90
2019-02-26T21:13:34.602Z,99.90
2019-02-26T21:16:01.446Z,99.90
2019-02-26T21:18:31.575Z,99.90
2019-02-26T21:21:00.894Z,99.90
2019-02-26T21:23:32.465Z,99.90
2019-02-26T21:26:01.463Z,99.90
2019-02-26T21:28:33.314Z,99.90
2019-02-26T21:31:02.238Z,99.90
2019-02-26T21:33:31.581Z,99.90
2019-02-26T21:36:00.924Z,99.90
2019-02-26T21:38:30.376Z,99.90
2019-02-26T21:40:59.999Z,99.90
2019-02-26T21:43:29.459Z,99.90
2019-02-26T21:45:58.839Z,99.90
2019-02-26T21:48:28.142Z,99.90
2019-02-26T21:50:57.727Z,99.90
2019-02-26T21:53:27.002Z,99.90
2019-02-26T21:55:56.354Z,99.90
2019-02-26T21:58:26.924Z,99.90
2019-02-26T22:00:56.841Z,99.90
2019-02-26T22:03:26.193Z,99.90
2019-02-26T22:06:04.804Z,99.90
2019-02-26T22:08:27.073Z,99.90
2019-02-26T22:10:56.351Z,99.90
2019-02-26T22:13:29.081Z,99.90
2019-02-26T22:15:56.784Z,99.90
2019-02-26T22:18:26.171Z,99.90
2019-02-26T22:20:55.487Z,99.90
2019-02-26T22:23:24.747Z,99.90
2019-02-26T22:25:55.422Z,99.90
2019-02-26T22:28:25.969Z,99.90
2019-02-26T22:30:55.926Z,99.90
2019-02-26T22:33:26.112Z,99.90
2019-02-26T22:35:57.009Z,99.90
2019-02-26T22:38:26.538Z,99.90
2019-02-26T22:40:55.892Z,99.90
2019-02-26T22:43:25.323Z,99.90
2019-02-26T22:45:54.632Z,99.90
2019-02-26T22:48:23.896Z,99.90
2019-02-26T22:50:53.192Z,99.90
2019-02-26T22:53:22.457Z,99.90
2019-02-26T22:55:51.723Z,99.90
2019-02-26T22:58:20.981Z,99.90
2019-02-26T23:01:39.180Z,99.90
2019-02-26T23:04:08.817Z,99.90
2019-02-26T23:06:38.186Z,99.90
2019-02-26T23:09:10.923Z,99.90
2019-02-26T23:11:40.715Z,99.90
2019-02-26T23:14:10.587Z,99.90
2019-02-26T23:16:40.465Z,99.90
2019-02-26T23:19:10.049Z,99.90
2019-02-26T23:21:39.784Z,99.90
2019-02-26T23:24:09.838Z,99.90
2019-02-26T23:26:42.492Z,99.90
2019-02-26T23:29:11.555Z,99.90
2019-02-26T23:31:40.855Z,99.90
2019-02-26T23:34:10.563Z,99.90
2019-02-26T23:36:40.266Z,99.90
2019-02-26T23:39:10.943Z,99.90
2019-02-26T23:41:40.432Z,99.90
2019-02-26T23:44:09.945Z,99.90
2019-02-26T23:46:39.501Z,99.90
2019-02-26T23:49:08.769Z,99.90
2019-02-26T23:51:38.078Z,99.90
2019-02-26T23:54:07.989Z,99.90
2019-02-26T23:56:37.482Z,99.90
2019-02-26T23:59:06.782Z,99.90
